Time;durP1;ratioP1;P1;durP2;ratioP2;P2;SDS_P1;SDS_P2;PMS_P1;PMS_P2;Temp;Humidity;BMP_temperature;BMP_pressure;BME280_temperature;BME280_humidity;BME280_pressure;Samples;Min_cycle;Max_cycle;Signal;HPM_P1;HPM_P2
2022/06/29 00:02:09;;;;;;;0.00;0.00;;;;;;;16.78;57.20;100054.31;7364720;19;20017;-67
2022/06/29 00:04:34;;;;;;;0.00;0.00;;;;;;;16.70;57.48;100050.38;7363830;19;20014;-69
2022/06/29 00:06:59;;;;;;;0.03;0.03;;;;;;;16.70;57.27;100060.94;7363463;19;20553;-67
2022/06/29 00:09:25;;;;;;;0.10;0.10;;;;;;;16.63;57.56;100055.16;7364396;19;20023;-68
2022/06/29 00:11:50;;;;;;;0.05;0.05;;;;;;;16.60;57.91;100066.72;7365156;19;20512;-69
2022/06/29 00:14:16;;;;;;;0.00;0.00;;;;;;;16.57;58.46;100066.03;7364555;19;20011;-69
2022/06/29 00:16:41;;;;;;;0.08;0.08;;;;;;;16.53;58.51;100061.91;7364817;19;20017;-67
2022/06/29 00:19:07;;;;;;;0.00;0.00;;;;;;;16.50;57.56;100059.44;7364662;19;20023;-69
2022/06/29 00:21:33;;;;;;;0.00;0.00;;;;;;;16.46;59.28;100056.13;7364774;19;20034;-67
2022/06/29 00:23:59;;;;;;;0.00;0.00;;;;;;;16.42;58.73;100056.38;7363713;19;20362;-67
2022/06/29 00:26:25;;;;;;;0.00;0.00;;;;;;;16.40;58.98;100058.28;7362378;19;20007;-67
2022/06/29 00:28:51;;;;;;;0.00;0.00;;;;;;;16.36;59.93;100049.69;7365291;19;20010;-69
2022/06/29 00:31:16;;;;;;;0.00;0.00;;;;;;;16.38;59.42;100062.78;7362820;19;20015;-68
2022/06/29 00:33:42;;;;;;;0.00;0.00;;;;;;;16.28;59.46;100050.13;7364741;19;20013;-69
2022/06/29 00:36:07;;;;;;;0.08;0.08;;;;;;;16.35;58.58;100062.00;7363620;19;20022;-69
2022/06/29 00:38:32;;;;;;;0.00;0.00;;;;;;;16.33;59.10;100061.25;7363069;19;20010;-68
2022/06/29 00:40:58;;;;;;;0.00;0.00;;;;;;;16.31;58.36;100057.84;7365646;19;20105;-67
2022/06/29 00:43:24;;;;;;;0.00;0.00;;;;;;;16.28;59.53;100060.66;7366120;19;20055;-67
2022/06/29 00:45:50;;;;;;;0.00;0.00;;;;;;;16.27;60.07;100053.72;7363919;19;20007;-69
2022/06/29 00:48:16;;;;;;;0.00;0.00;;;;;;;16.27;60.01;100056.34;7365695;19;20450;-69
2022/06/29 00:50:44;;;;;;;0.10;0.10;;;;;;;16.25;59.71;100055.56;7364147;19;20021;-69
2022/06/29 00:53:14;;;;;;;0.00;0.00;;;;;;;16.26;60.36;100046.72;7365379;19;20018;-68
2022/06/29 00:55:42;;;;;;;0.08;0.08;;;;;;;16.24;60.68;100043.34;7364264;19;20014;-68
2022/06/29 00:58:10;;;;;;;0.00;0.00;;;;;;;16.25;60.35;100044.19;7365018;19;20018;-68
2022/06/29 01:00:36;;;;;;;0.00;0.00;;;;;;;16.25;61.21;100055.56;7363970;19;20015;-69
2022/06/29 01:03:02;;;;;;;0.08;0.08;;;;;;;16.21;61.22;100043.50;7362317;19;20026;-69
2022/06/29 01:05:30;;;;;;;0.10;0.10;;;;;;;16.28;61.47;100058.03;7364330;19;20014;-68
2022/06/29 01:07:56;;;;;;;;;;;;;;;16.29;59.07;100051.81;7363856;19;20483;-69
2022/06/29 01:10:21;;;;;;;0.00;0.00;;;;;;;16.26;60.75;100051.13;7364417;19;19915;-69
2022/06/29 01:12:51;;;;;;;0.05;0.05;;;;;;;16.27;59.38;100058.09;7358959;19;20006;-68
2022/06/29 01:15:17;;;;;;;0.00;0.00;;;;;;;16.22;59.66;100053.13;7363379;19;20050;-67
2022/06/29 01:17:42;;;;;;;0.10;0.10;;;;;;;16.20;60.47;100062.88;7362708;19;20747;-66
2022/06/29 01:20:08;;;;;;;0.00;0.00;;;;;;;16.16;60.69;100049.97;7360734;19;20024;-69
2022/06/29 01:22:34;;;;;;;0.10;0.10;;;;;;;16.13;59.50;100047.50;7364537;19;20010;-69
2022/06/29 01:24:59;;;;;;;0.10;0.10;;;;;;;16.00;60.76;100036.81;7362731;19;21601;-69
2022/06/29 01:27:25;;;;;;;0.10;0.10;;;;;;;16.02;60.49;100043.69;7366490;19;20014;-69
2022/06/29 01:29:50;;;;;;;0.00;0.00;;;;;;;15.91;60.19;100032.03;7364283;19;20003;-67
2022/06/29 01:32:16;;;;;;;0.00;0.00;;;;;;;15.86;60.21;100028.81;7367258;19;20654;-69
2022/06/29 01:34:42;;;;;;;0.00;0.00;;;;;;;15.85;61.25;100041.13;7363761;19;20010;-69
2022/06/29 01:37:08;;;;;;;0.10;0.10;;;;;;;15.86;60.91;100048.09;7365103;19;20074;-69
2022/06/29 01:39:34;;;;;;;0.05;0.05;;;;;;;15.81;61.71;100043.09;7364814;19;20094;-67
2022/06/29 01:42:00;;;;;;;0.10;0.10;;;;;;;15.83;61.66;100048.28;7366690;19;20046;-69
2022/06/29 01:44:26;;;;;;;0.10;0.10;;;;;;;15.82;62.22;100041.31;7366050;19;20003;-67
2022/06/29 01:46:51;;;;;;;0.00;0.00;;;;;;;15.81;60.83;100044.84;7365396;19;20085;-68
2022/06/29 01:49:17;;;;;;;0.10;0.10;;;;;;;15.80;60.75;100044.00;7362452;19;20010;-69
2022/06/29 01:51:42;;;;;;;0.00;0.00;;;;;;;15.76;61.39;100037.25;7362343;19;20611;-69
2022/06/29 01:54:07;;;;;;;0.00;0.00;;;;;;;15.77;60.98;100044.19;7364694;19;20038;-67
2022/06/29 01:56:33;;;;;;;0.08;0.08;;;;;;;15.74;61.16;100041.72;7364189;19;20045;-69
2022/06/29 01:58:58;;;;;;;0.00;0.00;;;;;;;15.72;61.43;100029.59;7353595;19;20021;-69
2022/06/29 02:01:24;;;;;;;0.00;0.00;;;;;;;15.66;60.39;100027.28;7363308;19;20018;-67
2022/06/29 02:03:51;;;;;;;0.10;0.10;;;;;;;15.65;61.05;100034.31;7361200;19;20011;-69
2022/06/29 02:06:17;;;;;;;0.10;0.10;;;;;;;15.63;61.98;100036.19;7362792;19;20499;-69
2022/06/29 02:08:43;;;;;;;0.00;0.00;;;;;;;15.61;62.11;100032.75;7358359;19;20029;-68
2022/06/29 02:11:08;;;;;;;0.00;0.00;;;;;;;15.62;61.01;100038.88;7362642;19;20014;-69
2022/06/29 02:13:34;;;;;;;0.00;0.00;;;;;;;15.60;61.78;100038.94;7362604;19;20007;-69
2022/06/29 02:15:59;;;;;;;0.00;0.00;;;;;;;15.57;61.89;100042.63;7364375;19;20049;-67
2022/06/29 02:18:25;;;;;;;0.00;0.00;;;;;;;15.56;62.23;100040.91;7359664;19;20010;-68
2022/06/29 02:20:50;;;;;;;0.00;0.00;;;;;;;15.56;62.45;100050.56;7363327;19;20334;-68
2022/06/29 02:23:16;;;;;;;0.00;0.00;;;;;;;15.56;61.74;100045.31;7361202;19;20100;-69
2022/06/29 02:25:41;;;;;;;0.00;0.00;;;;;;;15.54;61.72;100039.28;7360718;19;20082;-66
2022/06/29 02:28:07;;;;;;;0.00;0.00;;;;;;;15.44;61.93;100024.91;7364178;19;20721;-69
2022/06/29 02:36:01;;;;;;;0.10;0.10;;;;;;;15.45;62.96;100043.25;7362340;19;20464;-69
2022/06/29 02:38:26;;;;;;;0.00;0.00;;;;;;;15.46;62.25;100038.84;7359580;19;20102;-69
2022/06/29 02:40:51;;;;;;;0.08;0.08;;;;;;;15.36;62.48;100027.09;7362382;19;20453;-69
2022/06/29 02:43:17;;;;;;;0.00;0.00;;;;;;;15.41;62.09;100036.47;7362780;19;20018;-69
2022/06/29 02:45:42;;;;;;;0.10;0.10;;;;;;;15.41;61.85;100038.22;7361461;19;20014;-69
2022/06/29 02:48:08;;;;;;;0.00;0.00;;;;;;;15.36;61.15;100032.34;7359431;19;20094;-69
2022/06/29 02:50:34;;;;;;;0.10;0.10;;;;;;;15.35;62.20;100031.50;7360344;19;20018;-69
2022/06/29 02:52:59;;;;;;;0.00;0.00;;;;;;;15.32;62.89;100024.66;7361580;19;20010;-69
2022/06/29 02:55:25;;;;;;;0.00;0.00;;;;;;;15.31;62.49;100028.22;7361850;19;20071;-67
2022/06/29 02:57:50;;;;;;;0.00;0.00;;;;;;;15.31;62.90;100030.84;7355905;19;20010;-69
2022/06/29 03:00:16;;;;;;;0.00;0.00;;;;;;;15.30;62.79;100029.13;7360465;19;20014;-69
2022/06/29 03:02:41;;;;;;;0.00;0.00;;;;;;;15.18;63.33;100008.75;7364626;19;20073;-69
2022/06/29 03:05:08;;;;;;;0.00;0.00;;;;;;;15.24;62.75;100016.31;7355764;19;20336;-69
2022/06/29 03:07:33;;;;;;;0.10;0.10;;;;;;;15.31;63.39;100030.84;7366545;19;20019;-68
2022/06/29 03:09:58;;;;;;;0.00;0.00;;;;;;;15.31;63.18;100025.59;7367595;19;20018;-69
2022/06/29 03:12:24;;;;;;;0.00;0.00;;;;;;;15.31;63.06;100020.31;7368567;19;20018;-67
2022/06/29 03:14:49;;;;;;;0.10;0.10;;;;;;;15.32;62.96;100018.53;7364937;19;20014;-69
2022/06/29 03:17:15;;;;;;;0.00;0.00;;;;;;;15.32;62.96;100016.75;7368720;19;20040;-69
2022/06/29 03:19:40;;;;;;;0.03;0.03;;;;;;;15.32;63.00;100016.75;7357603;19;20018;-68
2022/06/29 03:22:06;;;;;;;0.10;0.10;;;;;;;15.31;63.51;100015.06;7366364;19;19999;-68
2022/06/29 03:24:31;;;;;;;0.10;0.10;;;;;;;15.17;63.89;99986.00;7366188;19;20029;-69
2022/06/29 03:26:56;;;;;;;0.00;0.00;;;;;;;15.34;63.90;100007.94;7366212;19;20003;-69
2022/06/29 03:29:22;;;;;;;0.00;0.00;;;;;;;15.31;63.33;100008.97;7365187;19;20023;-66
2022/06/29 03:31:47;;;;;;;0.00;0.00;;;;;;;15.34;62.65;100014.03;7363370;19;20041;-69
2022/06/29 03:34:13;;;;;;;0.00;0.00;;;;;;;15.35;62.54;100017.50;7366060;19;20944;-67
2022/06/29 03:36:39;;;;;;;0.00;0.00;;;;;;;15.32;62.56;100016.75;7365964;19;20583;-67
2022/06/29 03:39:04;;;;;;;0.00;0.00;;;;;;;15.31;63.04;100022.97;7366118;19;20006;-69
2022/06/29 03:41:30;;;;;;;0.00;0.00;;;;;;;15.20;62.67;99998.97;7364908;19;20426;-69
2022/06/29 03:43:56;;;;;;;0.08;0.08;;;;;;;15.25;63.46;100010.09;7368319;19;20010;-69
2022/06/29 03:46:21;;;;;;;0.10;0.10;;;;;;;15.31;63.79;100020.31;7365904;19;20011;-69
2022/06/29 03:48:47;;;;;;;0.05;0.05;;;;;;;15.31;62.99;100020.31;7365301;19;21315;-69
2022/06/29 03:51:12;;;;;;;0.00;0.00;;;;;;;15.27;63.45;100012.69;7366179;19;20013;-69
2022/06/29 03:53:38;;;;;;;0.00;0.00;;;;;;;15.35;63.16;100021.00;7367963;19;25221;-69
2022/06/29 03:56:04;;;;;;;0.00;0.00;;;;;;;15.36;63.47;100024.47;7364020;19;20029;-67
2022/06/29 03:58:29;;;;;;;0.00;0.00;;;;;;;15.38;63.23;100031.38;7364007;19;20006;-68
2022/06/29 04:00:55;;;;;;;0.10;0.10;;;;;;;15.40;62.56;100032.13;7365150;19;20485;-67
2022/06/29 04:03:20;;;;;;;0.10;0.10;;;;;;;15.40;62.99;100026.00;7365312;19;20462;-66
2022/06/29 04:05:46;;;;;;;0.00;0.00;;;;;;;15.39;62.89;100022.53;7363814;19;20006;-69
2022/06/29 04:08:11;;;;;;;0.00;0.00;;;;;;;15.40;63.25;100024.22;7361705;19;20111;-70
2022/06/29 04:10:36;;;;;;;0.10;0.10;;;;;;;15.41;63.12;100022.44;7364489;19;20011;-67
2022/06/29 04:13:02;;;;;;;0.00;0.00;;;;;;;15.28;63.24;100002.06;7365052;19;20018;-69
2022/06/29 04:15:27;;;;;;;0.10;0.10;;;;;;;15.42;63.54;100032.06;7365035;19;20011;-69
2022/06/29 04:17:53;;;;;;;0.05;0.05;;;;;;;15.34;62.72;100023.72;7364343;19;20097;-67
2022/06/29 04:23:03;;;;;;;0.00;0.00;;;;;;;15.36;63.32;100021.84;7362837;19;20021;-67
2022/06/29 04:25:28;;;;;;;0.10;0.10;;;;;;;15.45;63.27;100035.34;7366889;19;20003;-68
2022/06/29 04:27:54;;;;;;;0.00;0.00;;;;;;;15.46;63.31;100033.56;7362412;19;20031;-68
2022/06/29 04:30:20;;;;;;;0.10;0.10;;;;;;;15.45;63.83;100030.09;7364726;19;20007;-69
2022/06/29 04:32:45;;;;;;;0.00;0.00;;;;;;;15.49;62.92;100030.78;7362222;19;20058;-69
2022/06/29 04:35:11;;;;;;;0.10;0.10;;;;;;;15.37;63.07;100003.38;7365297;19;25316;-70
2022/06/29 04:37:36;;;;;;;0.08;0.08;;;;;;;15.42;62.42;100016.28;7362476;19;20367;-68
2022/06/29 04:40:03;;;;;;;0.03;0.03;;;;;;;15.50;63.07;100024.59;7366196;19;20002;-67
2022/06/29 04:42:29;;;;;;;0.00;0.00;;;;;;;15.48;63.05;100021.19;7364961;19;20023;-69
2022/06/29 04:44:54;;;;;;;0.00;0.00;;;;;;;15.49;63.12;100023.75;7364384;19;20014;-69
2022/06/29 04:47:19;;;;;;;0.00;0.00;;;;;;;15.48;63.21;100026.47;7366351;19;20074;-69
2022/06/29 04:49:45;;;;;;;0.00;0.00;;;;;;;15.47;63.11;100030.03;7362889;19;20010;-69
2022/06/29 04:52:10;;;;;;;0.00;0.00;;;;;;;15.46;62.97;100025.69;7363110;19;20003;-69
2022/06/29 04:54:36;;;;;;;0.00;0.00;;;;;;;15.34;62.73;100018.44;7361952;19;21250;-69
2022/06/29 04:57:01;;;;;;;0.00;0.00;;;;;;;15.28;63.14;100015.22;7363538;19;20025;-69
2022/06/29 04:59:27;;;;;;;0.10;0.10;;;;;;;15.40;63.44;100023.38;7364070;19;20029;-69
2022/06/29 05:01:52;;;;;;;0.00;0.00;;;;;;;15.38;63.12;100025.25;7366081;19;20018;-70
2022/06/29 05:04:17;;;;;;;0.10;0.10;;;;;;;15.36;62.97;100027.97;7364956;19;20014;-69
2022/06/29 05:06:43;;;;;;;0.00;0.00;;;;;;;15.35;63.67;100025.41;7364476;19;20947;-68
2022/06/29 05:09:08;;;;;;;0.00;0.00;;;;;;;15.20;64.05;100012.13;7363731;19;20030;-69
2022/06/29 05:11:34;;;;;;;0.00;0.00;;;;;;;15.34;62.93;100032.44;7361806;19;20014;-68
2022/06/29 05:14:00;;;;;;;0.00;0.00;;;;;;;15.34;63.35;100035.09;7363680;19;20010;-67
2022/06/29 05:16:25;;;;;;;0.10;0.10;;;;;;;15.23;63.47;100022.50;7364305;19;20030;-67
2022/06/29 05:18:51;;;;;;;0.00;0.00;;;;;;;15.31;63.42;100036.09;7364954;19;20040;-70
2022/06/29 05:21:18;;;;;;;0.10;0.10;;;;;;;15.31;63.73;100035.25;7361478;19;20021;-69
2022/06/29 05:23:44;;;;;;;0.10;0.10;;;;;;;15.21;64.16;100019.13;7362217;19;20045;-69
2022/06/29 05:26:10;;;;;;;0.03;0.03;;;;;;;15.29;63.77;100032.69;7360326;19;20013;-69
2022/06/29 05:28:35;;;;;;;0.08;0.08;;;;;;;15.25;64.47;100030.31;7361701;19;20014;-69
2022/06/29 05:31:01;;;;;;;0.10;0.10;;;;;;;15.25;64.38;100036.41;7360388;19;20010;-70
2022/06/29 05:33:36;;;;;;;0.10;0.10;;;;;;;15.29;63.93;100037.09;7362739;19;20038;-69
2022/06/29 05:36:06;;;;;;;0.05;0.05;;;;;;;15.31;64.51;100036.09;7362219;19;20010;-69
2022/06/29 05:38:33;;;;;;;0.00;0.00;;;;;;;15.30;64.61;100041.44;7361450;19;20375;-69
2022/06/29 05:41:00;;;;;;;0.00;0.00;;;;;;;15.35;63.96;100043.81;7362560;19;20897;-66
2022/06/29 05:43:26;;;;;;;0.10;0.10;;;;;;;15.36;64.05;100037.63;7362622;19;20023;-69
2022/06/29 05:45:52;;;;;;;0.00;0.00;;;;;;;15.35;64.13;100046.44;7359945;19;20404;-70
2022/06/29 05:48:17;;;;;;;0.00;0.00;;;;;;;15.40;64.55;100045.28;7363962;19;20017;-69
2022/06/29 05:50:42;;;;;;;0.08;0.08;;;;;;;15.41;63.98;100041.75;7359158;19;20040;-68
2022/06/29 05:53:08;;;;;;;0.10;0.10;;;;;;;15.47;64.25;100056.34;7364022;19;20045;-69
2022/06/29 05:55:33;;;;;;;0.10;0.10;;;;;;;15.49;63.94;100054.47;7360956;19;20391;-69
2022/06/29 05:57:59;;;;;;;0.03;0.03;;;;;;;15.54;64.38;100057.72;7357873;19;22431;-70
2022/06/29 06:00:25;;;;;;;0.10;0.10;;;;;;;15.52;64.30;100054.31;7362648;19;20007;-69
2022/06/29 06:02:51;;;;;;;0.00;0.00;;;;;;;15.63;64.54;100059.00;7364885;19;20025;-69
2022/06/29 06:05:16;;;;;;;0.00;0.00;;;;;;;15.67;64.46;100064.06;7362367;19;20011;-69
2022/06/29 06:07:42;;;;;;;0.00;0.00;;;;;;;15.72;64.05;100072.56;7364713;19;20051;-68
2022/06/29 06:10:08;;;;;;;0.00;0.00;;;;;;;15.75;64.36;100061.84;7360932;19;20136;-68
2022/06/29 06:12:33;;;;;;;0.10;0.10;;;;;;;15.81;63.99;100069.44;7364434;19;20003;-70
2022/06/29 06:15:00;;;;;;;0.00;0.00;;;;;;;15.85;63.75;100071.88;7361870;19;20638;-69
2022/06/29 06:17:28;;;;;;;0.00;0.00;;;;;;;15.85;63.61;100066.63;7357802;19;20019;-69
2022/06/29 06:19:55;;;;;;;0.00;0.00;;;;;;;15.92;63.53;100075.91;7360075;19;20011;-70
2022/06/29 06:22:21;;;;;;;0.00;0.00;;;;;;;15.94;63.68;100082.75;7359861;19;20410;-67
2022/06/29 06:24:46;;;;;;;0.10;0.10;;;;;;;15.97;63.70;100087.03;7360540;19;20478;-69
2022/06/29 06:27:12;;;;;;;0.00;0.00;;;;;;;15.99;63.40;100087.78;7359716;19;20026;-69
2022/06/29 06:29:37;;;;;;;0.00;0.00;;;;;;;16.01;63.75;100080.63;7359087;19;20006;-67
2022/06/29 06:32:04;;;;;;;0.08;0.08;;;;;;;16.02;63.16;100082.34;7361623;19;20026;-70
2022/06/29 06:34:30;;;;;;;0.10;0.10;;;;;;;16.05;62.64;100076.91;7361928;19;20729;-67
2022/06/29 06:36:56;;;;;;;0.10;0.10;;;;;;;16.08;63.10;100084.66;7364554;19;20018;-69
2022/06/29 06:39:21;;;;;;;0.10;0.10;;;;;;;16.06;63.62;100083.84;7369746;19;20002;-68
2022/06/29 06:41:46;;;;;;;0.03;0.03;;;;;;;16.11;62.96;100076.56;7367951;19;21391;-69
2022/06/29 06:44:12;;;;;;;0.10;0.10;;;;;;;16.06;63.42;100075.97;7365072;19;20013;-68
2022/06/29 06:46:37;;;;;;;0.05;0.05;;;;;;;16.11;63.14;100083.59;7365814;19;20018;-69
2022/06/29 06:49:03;;;;;;;0.00;0.00;;;;;;;16.09;62.96;100081.91;7367495;19;20014;-69
2022/06/29 06:51:28;;;;;;;0.08;0.08;;;;;;;16.20;62.84;100093.63;7368069;19;20010;-68
2022/06/29 06:53:54;;;;;;;0.10;0.10;;;;;;;16.23;62.95;100094.31;7369645;19;20374;-67
2022/06/29 06:56:19;;;;;;;0.10;0.10;;;;;;;16.23;63.11;100099.59;7369058;19;20030;-67
2022/06/29 06:58:44;;;;;;;0.10;0.10;;;;;;;16.25;63.45;100097.72;7367393;19;20042;-68
2022/06/29 07:01:11;;;;;;;0.10;0.10;;;;;;;16.28;63.41;100099.34;7370023;19;20014;-68
2022/06/29 07:03:37;;;;;;;0.00;0.00;;;;;;;16.29;63.88;100093.97;7367465;19;20819;-68
2022/06/29 07:06:12;;;;;;;0.10;0.10;;;;;;;16.40;62.64;100113.59;7361003;19;20512;-68
2022/06/29 07:08:39;;;;;;;0.10;0.10;;;;;;;16.41;62.46;100108.25;7366371;19;20011;-66
2022/06/29 07:11:05;;;;;;;0.10;0.10;;;;;;;16.44;62.69;100104.59;7368398;19;20790;-67
2022/06/29 07:13:34;;;;;;;0.10;0.10;;;;;;;16.50;62.40;100112.16;7370211;19;20024;-68
2022/06/29 07:16:02;;;;;;;0.00;0.00;;;;;;;16.54;62.46;100117.16;7367157;19;20037;-69
2022/06/29 07:18:28;;;;;;;0.10;0.10;;;;;;;16.56;62.31;100120.56;7369912;19;20075;-66
2022/06/29 07:20:53;;;;;;;0.08;0.08;;;;;;;16.58;61.75;100120.50;7369032;19;20748;-68
2022/06/29 07:23:18;;;;;;;0.10;0.10;;;;;;;16.50;62.13;100112.16;7371613;19;20030;-69
2022/06/29 07:25:44;;;;;;;0.05;0.05;;;;;;;16.58;62.34;100123.13;7365942;19;20086;-69
2022/06/29 07:28:09;;;;;;;0.00;0.00;;;;;;;16.57;61.69;100118.75;7364388;19;20090;-68
2022/06/29 07:30:35;;;;;;;0.10;0.10;;;;;;;16.58;61.78;100115.22;7367560;19;20010;-70
2022/06/29 07:33:00;;;;;;;0.00;0.00;;;;;;;16.57;61.93;100114.38;7365532;19;20045;-68
2022/06/29 07:35:26;;;;;;;0.10;0.10;;;;;;;16.59;62.02;100112.47;7368330;19;20014;-69
2022/06/29 07:37:52;;;;;;;0.00;0.00;;;;;;;16.55;61.65;100099.56;7368929;19;20034;-69
2022/06/29 07:40:18;;;;;;;0.08;0.08;;;;;;;16.65;62.10;100119.19;7368920;19;20074;-69
2022/06/29 07:42:44;;;;;;;0.03;0.03;;;;;;;16.70;61.94;100119.78;7363962;19;20029;-68
2022/06/29 07:45:10;;;;;;;0.00;0.00;;;;;;;16.75;61.56;100120.41;7367808;19;20123;-69
2022/06/29 07:47:36;;;;;;;0.08;0.08;;;;;;;16.84;61.55;100124.28;7366785;19;20043;-69
2022/06/29 07:50:01;;;;;;;0.10;0.10;;;;;;;16.92;61.18;100123.84;7365371;19;20018;-68
2022/06/29 07:52:27;;;;;;;0.00;0.00;;;;;;;17.02;61.32;100125.00;7358383;19;20019;-68
2022/06/29 07:54:52;;;;;;;0.00;0.00;;;;;;;17.10;61.02;100113.06;7356522;19;24228;-68
2022/06/29 07:57:18;;;;;;;0.10;0.10;;;;;;;17.18;61.17;100117.03;7356694;19;20022;-66
2022/06/29 07:59:46;;;;;;;0.10;0.10;;;;;;;16.69;60.46;100030.22;7354973;19;20014;-69
2022/06/29 08:02:12;;;;;;;0.00;0.00;;;;;;;17.40;60.77;100119.25;7357760;19;20027;-65
2022/06/29 08:04:38;;;;;;;0.00;0.00;;;;;;;17.49;60.58;100129.25;7363947;19;20626;-69
2022/06/29 08:07:03;;;;;;;0.10;0.10;;;;;;;17.58;60.09;100126.03;7352567;19;20023;-66
2022/06/29 08:09:29;;;;;;;0.00;0.00;;;;;;;17.68;59.56;100132.47;7368193;19;20457;-68
2022/06/29 08:11:54;;;;;;;0.03;0.03;;;;;;;17.77;60.17;100129.28;7362559;19;20469;-68
2022/06/29 08:14:20;;;;;;;0.10;0.10;;;;;;;17.87;59.08;100132.22;7368408;19;20007;-67
2022/06/29 08:16:45;;;;;;;0.10;0.10;;;;;;;17.98;59.16;100132.38;7368018;19;21177;-68
2022/06/29 08:19:11;;;;;;;0.10;0.10;;;;;;;18.11;58.15;100127.19;7365971;19;20093;-69
2022/06/29 08:21:36;;;;;;;0.10;0.10;;;;;;;18.21;57.24;100133.59;7367133;19;20022;-69
2022/06/29 08:24:01;;;;;;;0.00;0.00;;;;;;;18.33;56.76;100132.81;7366971;19;20017;-69
2022/06/29 08:26:27;;;;;;;0.03;0.03;;;;;;;18.42;57.72;100132.22;7364758;19;20038;-66
2022/06/29 08:28:52;;;;;;;0.10;0.10;;;;;;;18.52;57.08;100118.41;7368889;19;20042;-68
2022/06/29 08:31:18;;;;;;;0.10;0.10;;;;;;;18.67;57.30;100133.28;7365931;19;20030;-69
2022/06/29 08:33:43;;;;;;;0.10;0.10;;;;;;;18.78;56.84;100133.47;7368124;19;20014;-68
2022/06/29 08:36:09;;;;;;;0.03;0.03;;;;;;;18.82;55.99;100124.38;7367757;19;21789;-69
2022/06/29 08:38:34;;;;;;;0.08;0.08;;;;;;;18.98;55.56;100141.88;7361789;19;20010;-69
2022/06/29 08:41:00;;;;;;;0.10;0.10;;;;;;;19.00;55.54;100143.44;7366515;19;20042;-69
2022/06/29 08:43:26;;;;;;;0.00;0.00;;;;;;;19.00;55.58;100142.59;7355483;19;20014;-69
2022/06/29 08:45:53;;;;;;;0.10;0.10;;;;;;;19.04;55.64;100144.09;7364552;19;20018;-69
2022/06/29 08:48:19;;;;;;;0.10;0.10;;;;;;;19.04;55.30;100146.75;7366462;19;20014;-69
2022/06/29 08:50:50;;;;;;;0.10;0.10;;;;;;;19.07;56.13;100143.91;7361380;19;20014;-66
2022/06/29 08:53:16;;;;;;;0.03;0.03;;;;;;;19.10;56.07;100148.97;7361286;19;20473;-66
2022/06/29 08:55:52;;;;;;;0.10;0.10;;;;;;;19.19;55.82;100151.03;7363776;19;20014;-61
2022/06/29 08:58:21;;;;;;;0.10;0.10;;;;;;;19.22;55.58;100142.88;7361289;19;20015;-60
2022/06/29 09:00:49;;;;;;;0.10;0.10;;;;;;;19.28;55.59;100142.47;7360998;19;20002;-61
2022/06/29 09:03:17;;;;;;;0.10;0.10;;;;;;;19.36;55.01;100140.16;7361684;19;20354;-62
2022/06/29 09:05:54;;;;;;;0.00;0.00;;;;;;;19.51;56.05;100147.97;7364123;19;20022;-60
2022/06/29 09:08:21;;;;;;;0.08;0.08;;;;;;;19.50;55.25;100135.69;7363473;19;20018;-60
2022/06/29 09:10:47;;;;;;;0.10;0.10;;;;;;;19.62;54.74;100146.34;7361480;19;20022;-60
2022/06/29 09:13:19;;;;;;;0.10;0.10;;;;;;;19.77;53.98;100144.44;7364288;19;20465;-60
2022/06/29 09:15:45;;;;;;;0.10;0.10;;;;;;;19.76;54.22;100148.00;7364052;19;20018;-61
2022/06/29 09:18:31;;;;;;;0.10;0.10;;;;;;;19.81;54.67;100151.19;7365912;19;20018;-60
2022/06/29 09:20:59;;;;;;;0.10;0.10;;;;;;;19.75;53.66;100151.63;7260717;19;2004384;-62
2022/06/29 09:23:25;;;;;;;0.00;0.00;;;;;;;19.72;52.67;100158.91;7363508;19;20036;-60
2022/06/29 09:25:51;;;;;;;0.00;0.00;;;;;;;19.60;53.79;100142.09;7362905;19;20014;-62
2022/06/29 09:28:21;;;;;;;0.10;0.10;;;;;;;19.68;54.09;100153.00;7362893;19;20010;-60
2022/06/29 09:30:47;;;;;;;0.10;0.10;;;;;;;19.61;54.26;100146.44;7364273;19;20453;-61
2022/06/29 09:33:13;;;;;;;0.10;0.10;;;;;;;19.72;53.27;100157.16;7366658;19;20011;-62
2022/06/29 09:35:40;;;;;;;0.10;0.10;;;;;;;19.82;52.97;100152.91;7366136;19;20025;-62
2022/06/29 09:38:26;;;;;;;0.10;0.10;;;;;;;19.93;54.51;100150.34;7363286;19;20341;-62
2022/06/29 09:41:13;;;;;;;0.10;0.10;;;;;;;20.04;53.95;100156.69;7262904;19;2004355;-63
2022/06/29 09:43:43;;;;;;;0.10;0.10;;;;;;;20.04;53.22;100165.50;7366734;19;20017;-63
2022/06/29 09:46:10;;;;;;;0.10;0.10;;;;;;;20.02;52.09;100156.81;7351370;19;20481;-61
2022/06/29 09:48:37;;;;;;;0.10;0.10;;;;;;;20.01;52.86;100156.91;7366632;19;20027;-61
2022/06/29 09:53:52;;;;;;;0.10;0.10;;;;;;;20.00;53.43;100160.50;7366154;19;20464;-61
2022/06/29 09:56:19;;;;;;;0.10;0.10;;;;;;;20.03;53.39;100160.31;7364800;19;20013;-61
2022/06/29 09:58:47;;;;;;;0.10;0.10;;;;;;;20.06;53.32;100163.56;7365235;19;20616;-62
2022/06/29 10:03:58;;;;;;;0.10;0.10;;;;;;;20.17;51.57;100157.50;7363832;19;20027;-60
2022/06/29 10:06:24;;;;;;;0.10;0.10;;;;;;;20.20;51.01;100162.59;7364198;19;20035;-60
2022/06/29 10:08:51;;;;;;;0.10;0.10;;;;;;;20.20;51.04;100159.94;7362799;19;20022;-61
2022/06/29 10:14:50;;;;;;;0.10;0.10;;;;;;;20.18;52.40;100170.66;7262630;19;2004388;-60
2022/06/29 10:17:18;;;;;;;0.10;0.10;;;;;;;20.08;50.97;100161.66;7364210;19;20049;-61
2022/06/29 10:19:58;;;;;;;0.10;0.10;;;;;;;20.07;52.04;100164.41;7364481;19;20018;-60
2022/06/29 10:22:23;;;;;;;0.10;0.10;;;;;;;19.99;51.48;100166.78;7364175;19;20022;-58
2022/06/29 10:25:06;;;;;;;0.10;0.10;;;;;;;19.99;52.85;100158.81;7365826;19;20018;-62
2022/06/29 10:27:32;;;;;;;0.10;0.10;;;;;;;19.99;52.05;100170.25;7363278;19;20010;-61
2022/06/29 10:30:28;;;;;;;0.10;0.10;;;;;;;20.11;53.25;100165.88;7365910;19;20801;-61
2022/06/29 10:33:31;;;;;;;0.10;0.10;;;;;;;20.13;53.60;100153.41;7262469;19;2004264;-55
2022/06/29 10:36:05;;;;;;;0.00;0.00;;;;;;;20.31;53.04;100173.28;7262138;19;2004320;-60
2022/06/29 10:38:54;;;;;;;0.10;0.10;;;;;;;20.46;52.24;100169.56;7365476;19;20022;-62
2022/06/29 10:44:05;;;;;;;0.10;0.10;;;;;;;20.81;51.12;100174.09;7359846;19;20018;-65
2022/06/29 10:46:56;;;;;;;0.03;0.03;;;;;;;21.00;52.02;100168.28;7362425;19;20026;-64
2022/06/29 10:49:23;;;;;;;0.10;0.10;;;;;;;21.06;50.77;100172.28;7258412;19;2004405;-65
2022/06/29 10:51:49;;;;;;;0.00;0.00;;;;;;;21.27;50.01;100181.28;7360243;19;20050;-67
2022/06/29 10:54:26;;;;;;;0.10;0.10;;;;;;;21.73;52.13;100172.47;7359242;19;20022;-67
2022/06/29 10:56:52;;;;;;;0.00;0.00;;;;;;;22.12;47.71;100168.53;7358034;19;20011;-67
2022/06/29 10:59:34;;;;;;;0.10;0.10;;;;;;;22.63;49.85;100159.16;7358676;19;22780;-66
2022/06/29 11:02:13;;;;;;;0.10;0.10;;;;;;;23.05;48.28;100168.94;7358750;19;20066;-66
2022/06/29 11:04:40;;;;;;;0.10;0.10;;;;;;;23.41;43.55;100169.47;7360233;19;20097;-67
2022/06/29 11:12:49;;;;;;;0.10;0.10;;;;;;;25.14;44.90;100169.41;7363816;19;20025;-67
2022/06/29 11:18:13;;;;;;;0.10;0.10;;;;;;;26.09;42.94;100154.16;7261186;19;2004508;-67
2022/06/29 11:20:39;;;;;;;0.00;0.00;;;;;;;26.49;39.75;100166.38;7363296;19;20899;-65
2022/06/29 11:23:10;;;;;;;0.10;0.10;;;;;;;26.89;39.43;100162.44;7365460;19;20062;-65
2022/06/29 11:25:37;;;;;;;0.10;0.10;;;;;;;27.15;38.06;100158.00;7370433;19;20117;-66
2022/06/29 11:28:04;;;;;;;0.10;0.10;;;;;;;27.55;36.73;100163.84;7370013;19;20079;-66
2022/06/29 11:30:29;;;;;;;0.10;0.10;;;;;;;27.85;36.83;100170.59;7369789;19;20720;-64
2022/06/29 11:32:55;;;;;;;0.00;0.00;;;;;;;28.12;35.70;100173.06;7370045;19;20009;-66
2022/06/29 11:35:26;;;;;;;0.10;0.10;;;;;;;28.52;35.76;100166.19;7369770;19;20617;-66
2022/06/29 11:38:02;;;;;;;0.00;0.00;;;;;;;28.91;36.31;100165.59;7368180;19;20003;-67
2022/06/29 11:40:42;;;;;;;0.20;0.20;;;;;;;29.45;38.24;100165.94;7368790;19;20018;-67
2022/06/29 11:43:15;;;;;;;0.10;0.10;;;;;;;29.86;35.01;100157.84;7365583;19;20022;-66
2022/06/29 11:45:44;;;;;;;0.10;0.10;;;;;;;30.22;34.22;100153.69;7369508;19;20026;-66
2022/06/29 11:48:12;;;;;;;0.00;0.00;;;;;;;30.58;32.72;100161.25;7368961;19;20027;-66
2022/06/29 11:50:56;;;;;;;0.10;0.10;;;;;;;31.08;35.56;100159.94;7367203;19;20019;-65
2022/06/29 11:53:53;;;;;;;0.00;0.00;;;;;;;31.65;35.78;100164.81;7370068;19;20013;-66